createdAt,value
2022-10-08T00:01:46.203Z,6.12
2022-10-08T00:04:15.780Z,6.03
2022-10-08T00:06:43.951Z,6.18
2022-10-08T00:09:12.084Z,6.11
2022-10-08T00:11:41.067Z,6.30
2022-10-08T00:14:10.154Z,6.17
2022-10-08T00:16:39.860Z,5.99
2022-10-08T00:19:11.302Z,6.04
2022-10-08T00:21:43.191Z,6.14
2022-10-08T00:24:14.891Z,6.30
2022-10-08T00:26:44.567Z,6.40
2022-10-08T00:29:14.576Z,6.65
2022-10-08T00:31:45.400Z,6.41
2022-10-08T00:34:15.547Z,6.54
2022-10-08T00:36:46.847Z,6.51
2022-10-08T00:39:17.438Z,6.25
2022-10-08T00:41:50.185Z,6.13
2022-10-08T00:44:51.293Z,6.28
2022-10-08T00:47:24.152Z,6.42
2022-10-08T00:49:55.733Z,6.51
2022-10-08T00:52:27.615Z,6.63
2022-10-08T00:54:55.773Z,6.55
2022-10-08T00:57:24.234Z,6.53
2022-10-08T00:59:52.468Z,6.53
2022-10-08T01:02:20.711Z,6.56
2022-10-08T01:04:49.713Z,6.55
2022-10-08T01:07:23.481Z,6.63
2022-10-08T01:10:01.982Z,6.67
2022-10-08T01:12:41.594Z,6.63
2022-10-08T01:15:16.355Z,6.61
2022-10-08T01:17:58.510Z,6.59
2022-10-08T01:20:37.271Z,6.67
2022-10-08T01:23:30.803Z,6.85
2022-10-08T01:26:12.752Z,6.76
2022-10-08T01:28:45.338Z,6.74
2022-10-08T01:31:19.104Z,6.76
2022-10-08T01:33:54.313Z,6.80
2022-10-08T01:36:24.437Z,6.82
2022-10-08T01:38:56.209Z,6.88
2022-10-08T01:41:27.412Z,6.81
2022-10-08T01:44:02.534Z,6.88
2022-10-08T01:46:32.761Z,6.83
2022-10-08T01:49:06.846Z,6.83
2022-10-08T01:51:40.075Z,6.82
2022-10-08T01:54:10.731Z,6.98
2022-10-08T01:56:41.037Z,7.09
2022-10-08T01:59:15.468Z,7.27
2022-10-08T02:01:55.473Z,7.26
2022-10-08T02:04:34.098Z,7.36
2022-10-08T02:07:05.767Z,7.32
2022-10-08T02:09:36.492Z,7.41
2022-10-08T02:12:05.685Z,7.38
2022-10-08T02:14:36.716Z,7.37
2022-10-08T02:17:18.037Z,7.34
2022-10-08T02:19:54.357Z,7.36
2022-10-08T02:22:27.789Z,7.37
2022-10-08T02:25:01.688Z,7.28
2022-10-08T02:27:40.461Z,7.38
2022-10-08T02:30:12.442Z,7.36
2022-10-08T02:32:50.832Z,7.41
2022-10-08T02:35:25.281Z,7.47
2022-10-08T02:37:59.916Z,7.47
2022-10-08T02:40:30.920Z,7.58
2022-10-08T02:43:02.835Z,7.56
2022-10-08T02:45:37.257Z,7.64
2022-10-08T02:48:08.348Z,7.75
2022-10-08T02:50:40.117Z,7.86
2022-10-08T02:53:14.493Z,7.92
2022-10-08T02:55:49.303Z,7.95
2022-10-08T02:58:18.307Z,7.95
2022-10-08T03:00:52.497Z,7.97
2022-10-08T03:03:24.148Z,7.97
2022-10-08T03:05:53.294Z,7.93
2022-10-08T03:08:22.507Z,7.88
2022-10-08T03:10:51.208Z,7.87
2022-10-08T03:13:21.054Z,7.92
2022-10-08T03:15:54.561Z,8.01
2022-10-08T03:18:25.267Z,7.97
2022-10-08T03:20:55.849Z,7.96
2022-10-08T03:23:25.040Z,7.98
2022-10-08T03:25:53.153Z,8.13
2022-10-08T03:28:21.366Z,8.19
2022-10-08T03:30:49.576Z,8.08
2022-10-08T03:33:19.080Z,8.08
2022-10-08T03:35:48.019Z,8.24
2022-10-08T03:38:16.985Z,8.24
2022-10-08T03:40:54.030Z,8.12
2022-10-08T03:43:22.281Z,8.08
2022-10-08T03:45:52.695Z,8.04
2022-10-08T03:48:23.454Z,7.95
2022-10-08T03:50:52.918Z,7.78
2022-10-08T03:53:21.695Z,7.81
2022-10-08T03:55:50.080Z,7.79
2022-10-08T03:58:18.828Z,7.68
2022-10-08T04:00:58.165Z,7.66
2022-10-08T04:03:29.464Z,7.84
2022-10-08T04:05:57.732Z,7.78
2022-10-08T04:08:26.416Z,7.86
2022-10-08T04:10:54.576Z,7.85
2022-10-08T04:13:23.351Z,7.81
2022-10-08T04:15:51.604Z,7.90
2022-10-08T04:18:19.879Z,7.85
2022-10-08T04:20:49.316Z,7.80
2022-10-08T04:23:17.438Z,7.79
2022-10-08T04:25:51.844Z,7.75
2022-10-08T04:28:20.700Z,7.65
2022-10-08T04:30:56.453Z,7.56
2022-10-08T04:33:25.364Z,7.46
2022-10-08T04:35:59.837Z,7.58
2022-10-08T04:38:28.858Z,7.69
2022-10-08T04:41:05.063Z,7.85
2022-10-08T04:43:33.521Z,7.84
2022-10-08T04:46:02.271Z,7.88
2022-10-08T04:48:30.479Z,7.75
2022-10-08T04:51:04.094Z,7.68
2022-10-08T04:53:34.936Z,7.70
2022-10-08T04:56:10.892Z,7.82
2022-10-08T04:58:39.278Z,7.89
2022-10-08T05:01:09.723Z,7.85
2022-10-08T05:03:38.757Z,7.88
2022-10-08T05:06:09.633Z,7.95
2022-10-08T05:08:38.424Z,8.01
2022-10-08T05:11:06.572Z,7.95
2022-10-08T05:13:35.563Z,8.06
2022-10-08T05:16:05.226Z,8.14
2022-10-08T05:18:34.266Z,8.04
2022-10-08T05:21:08.547Z,8.18
2022-10-08T05:23:37.406Z,8.10
2022-10-08T05:26:12.921Z,8.03
2022-10-08T05:28:41.092Z,8.08
2022-10-08T05:31:09.376Z,8.19
2022-10-08T05:33:37.857Z,8.09
2022-10-08T05:36:09.088Z,8.22
2022-10-08T05:38:37.417Z,8.11
2022-10-08T05:41:10.525Z,8.13
2022-10-08T05:43:38.977Z,8.14
2022-10-08T05:46:07.798Z,8.16
2022-10-08T05:48:36.214Z,8.14
2022-10-08T05:51:05.409Z,8.16
2022-10-08T05:53:37.246Z,8.20
2022-10-08T05:56:07.742Z,8.29
2022-10-08T05:58:37.764Z,8.29
2022-10-08T06:01:14.033Z,8.31
2022-10-08T06:03:42.201Z,8.24
2022-10-08T06:06:12.377Z,8.20
2022-10-08T06:08:42.269Z,8.33
2022-10-08T06:11:10.465Z,8.35
2022-10-08T06:13:38.605Z,8.41
2022-10-08T06:16:08.751Z,8.50
2022-10-08T06:18:39.310Z,8.46
2022-10-08T06:21:09.857Z,8.57
2022-10-08T06:23:39.577Z,8.53
2022-10-08T06:26:10.448Z,8.53
2022-10-08T06:28:40.071Z,8.57
2022-10-08T06:31:09.367Z,8.71
2022-10-08T06:33:37.857Z,8.65
2022-10-08T06:36:07.785Z,8.78
2022-10-08T06:38:35.969Z,8.74
2022-10-08T06:41:04.087Z,8.67
2022-10-08T06:43:33.520Z,8.69
2022-10-08T06:46:05.197Z,8.85
2022-10-08T06:48:34.037Z,8.90
2022-10-08T06:51:04.041Z,9.11
2022-10-08T06:53:32.687Z,9.09
2022-10-08T06:56:03.155Z,9.23
2022-10-08T06:58:32.601Z,9.29
2022-10-08T07:01:06.042Z,9.28
2022-10-08T07:03:34.957Z,9.31
2022-10-08T07:06:05.001Z,9.37
2022-10-08T07:08:33.435Z,9.44
2022-10-08T07:11:05.915Z,9.67
2022-10-08T07:13:36.227Z,9.83
2022-10-08T07:16:05.620Z,10.04
2022-10-08T07:18:35.516Z,9.92
2022-10-08T07:21:04.387Z,9.97
2022-10-08T07:23:32.548Z,9.90
2022-10-08T07:26:02.879Z,10.06
2022-10-08T07:28:33.723Z,10.21
2022-10-08T07:31:06.229Z,10.34
2022-10-08T07:33:34.812Z,10.48
2022-10-08T07:36:10.523Z,10.51
2022-10-08T07:38:39.152Z,10.62
2022-10-08T07:41:08.481Z,10.56
2022-10-08T07:43:37.312Z,10.76
2022-10-08T07:46:08.718Z,10.82
2022-10-08T07:48:37.192Z,10.92
2022-10-08T07:51:12.823Z,10.92
2022-10-08T07:53:41.372Z,10.94
2022-10-08T07:56:11.759Z,10.91
2022-10-08T07:58:40.707Z,11.08
2022-10-08T08:01:14.146Z,11.52
2022-10-08T08:03:42.645Z,11.64
2022-10-08T08:06:13.140Z,12.23
2022-10-08T08:08:43.285Z,12.39
2022-10-08T08:11:13.576Z,12.53
2022-10-08T08:13:42.956Z,12.94
2022-10-08T08:16:14.091Z,12.86
2022-10-08T08:18:44.158Z,13.32
2022-10-08T08:21:14.704Z,13.52
2022-10-08T08:23:44.531Z,13.79
2022-10-08T08:26:14.832Z,13.98
2022-10-08T08:28:43.113Z,14.27
2022-10-08T08:31:14.549Z,14.18
2022-10-08T08:33:44.203Z,13.77
2022-10-08T08:36:12.299Z,13.84
2022-10-08T08:38:40.798Z,13.92
2022-10-08T08:41:23.293Z,13.69
2022-10-08T08:43:58.500Z,13.60
2022-10-08T08:46:32.790Z,13.52
2022-10-08T08:49:06.855Z,13.46
2022-10-08T08:51:35.524Z,13.40
2022-10-08T08:54:03.732Z,13.30
2022-10-08T08:56:33.897Z,13.30
2022-10-08T08:59:23.299Z,13.45
2022-10-08T09:01:57.149Z,13.51
2022-10-08T09:04:34.897Z,13.47
2022-10-08T09:07:07.709Z,13.26
2022-10-08T09:09:39.624Z,13.32
2022-10-08T09:12:20.425Z,13.46
2022-10-08T09:14:53.047Z,13.66
2022-10-08T09:17:30.059Z,13.97
2022-10-08T09:19:58.915Z,14.12
2022-10-08T09:22:29.577Z,13.80
2022-10-08T09:25:00.859Z,13.74
2022-10-08T09:27:44.582Z,13.59
2022-10-08T09:30:32.920Z,13.44
2022-10-08T09:33:16.669Z,13.35
2022-10-08T09:35:47.022Z,13.49
2022-10-08T09:38:22.969Z,13.58
2022-10-08T09:41:05.911Z,14.03
2022-10-08T09:43:35.183Z,14.24
2022-10-08T09:46:11.896Z,14.61
2022-10-08T09:48:43.283Z,14.64
2022-10-08T09:51:15.896Z,14.57
2022-10-08T09:53:47.816Z,14.73
2022-10-08T09:56:16.673Z,14.66
2022-10-08T09:58:55.865Z,15.15
2022-10-08T10:01:25.226Z,15.32
2022-10-08T10:03:57.441Z,15.52
2022-10-08T10:06:28.644Z,15.52
2022-10-08T10:09:02.400Z,15.72
2022-10-08T10:11:37.638Z,15.85
2022-10-08T10:14:19.101Z,15.75
2022-10-08T10:16:50.303Z,15.74
2022-10-08T10:19:23.368Z,15.94
2022-10-08T10:21:57.842Z,15.90
2022-10-08T10:24:41.324Z,15.64
2022-10-08T10:27:14.680Z,15.46
2022-10-08T10:29:54.332Z,15.53
2022-10-08T10:32:31.114Z,15.48
2022-10-08T10:35:10.722Z,15.65
2022-10-08T10:37:46.659Z,15.64
2022-10-08T10:40:34.122Z,15.90
2022-10-08T10:43:15.513Z,15.93
2022-10-08T10:45:49.063Z,15.84
2022-10-08T10:48:17.382Z,16.26
2022-10-08T10:50:59.193Z,16.26
2022-10-08T10:53:41.431Z,16.33
2022-10-08T10:56:15.119Z,16.16
2022-10-08T10:59:06.366Z,16.19
2022-10-08T11:01:43.669Z,16.09
2022-10-08T11:04:21.749Z,16.19
2022-10-08T11:07:01.228Z,16.41
2022-10-08T11:09:36.861Z,16.41
2022-10-08T11:12:18.560Z,16.63
2022-10-08T11:14:58.200Z,16.53
2022-10-08T11:17:43.948Z,16.50
2022-10-08T11:20:38.240Z,16.12
2022-10-08T11:23:21.119Z,15.90
2022-10-08T11:26:19.085Z,15.65
2022-10-08T11:28:50.031Z,15.37
2022-10-08T11:31:29.065Z,15.26
2022-10-08T11:33:58.111Z,15.43
2022-10-08T11:36:35.451Z,15.45
2022-10-08T11:39:14.512Z,15.48
2022-10-08T11:41:53.449Z,15.29
2022-10-08T11:44:22.205Z,15.09
2022-10-08T11:46:50.524Z,14.92
2022-10-08T11:49:53.994Z,15.04
2022-10-08T11:52:22.297Z,15.03
2022-10-08T11:54:55.846Z,14.91
2022-10-08T11:57:49.345Z,15.08
2022-10-08T12:00:40.637Z,15.13
2022-10-08T12:03:22.975Z,15.12
2022-10-08T12:05:54.210Z,15.07
2022-10-08T12:08:48.612Z,15.07
2022-10-08T12:11:48.985Z,15.04
2022-10-08T12:14:48.765Z,14.78
2022-10-08T12:17:17.512Z,14.81
2022-10-08T12:20:02.188Z,14.89
2022-10-08T12:22:59.665Z,14.84
2022-10-08T12:25:40.857Z,14.73
2022-10-08T12:28:50.167Z,14.79
2022-10-08T12:31:28.950Z,14.73
2022-10-08T12:34:03.127Z,14.55
2022-10-08T12:36:46.882Z,14.41
2022-10-08T12:39:23.114Z,14.30
2022-10-08T12:42:00.307Z,14.18
2022-10-08T12:44:40.987Z,14.08
2022-10-08T12:47:22.577Z,14.03
2022-10-08T12:49:57.930Z,14.00
2022-10-08T12:52:27.127Z,14.03
2022-10-08T12:54:57.978Z,13.92
2022-10-08T12:57:30.264Z,13.81
2022-10-08T13:00:01.775Z,13.88
2022-10-08T13:02:38.101Z,14.06
2022-10-08T13:05:08.198Z,14.20
2022-10-08T13:07:36.409Z,14.47
2022-10-08T13:10:18.906Z,14.50
2022-10-08T13:12:59.879Z,14.64
2022-10-08T13:15:30.699Z,14.81
2022-10-08T13:17:58.879Z,14.81
2022-10-08T13:20:27.120Z,14.90
2022-10-08T13:22:55.315Z,15.12
2022-10-08T13:25:33.388Z,14.75
2022-10-08T13:28:09.178Z,14.74
2022-10-08T13:30:39.374Z,14.89
2022-10-08T13:33:14.451Z,14.80
2022-10-08T13:35:43.988Z,14.97
2022-10-08T13:38:22.110Z,14.99
2022-10-08T13:40:53.271Z,15.15
2022-10-08T13:43:22.566Z,15.14
2022-10-08T13:45:52.316Z,15.05
2022-10-08T13:48:20.552Z,15.07
2022-10-08T13:50:50.373Z,14.86
2022-10-08T13:53:21.732Z,14.60
2022-10-08T13:55:51.232Z,14.74
2022-10-08T13:58:20.924Z,14.80
2022-10-08T14:00:50.071Z,14.75
2022-10-08T14:03:19.608Z,14.89
2022-10-08T14:05:49.536Z,14.73
2022-10-08T14:08:20.630Z,14.86
2022-10-08T14:10:48.998Z,14.68
2022-10-08T14:13:17.579Z,14.53
2022-10-08T14:15:45.800Z,14.37
2022-10-08T14:18:13.934Z,14.49
2022-10-08T14:20:43.618Z,14.37
2022-10-08T14:23:13.843Z,14.31
2022-10-08T14:25:42.152Z,14.59
2022-10-08T14:28:10.314Z,14.65
2022-10-08T14:30:38.477Z,14.76
2022-10-08T14:33:11.004Z,14.51
2022-10-08T14:35:39.734Z,14.56
2022-10-08T14:38:09.549Z,14.72
2022-10-08T14:40:37.810Z,14.69
2022-10-08T14:43:05.917Z,14.63
2022-10-08T14:45:34.119Z,14.62
2022-10-08T14:48:02.643Z,14.62
2022-10-08T14:50:30.764Z,14.77
2022-10-08T14:52:58.891Z,14.85
2022-10-08T14:55:28.353Z,14.74
2022-10-08T14:57:56.701Z,15.04
2022-10-08T15:00:24.811Z,15.31
2022-10-08T15:02:52.933Z,15.00
2022-10-08T15:05:21.073Z,15.01
2022-10-08T15:07:49.469Z,14.94
2022-10-08T15:10:17.953Z,14.87
2022-10-08T15:12:47.608Z,14.83
2022-10-08T15:15:18.527Z,14.77
2022-10-08T15:17:47.548Z,14.38
2022-10-08T15:20:16.720Z,14.53
2022-10-08T15:22:45.095Z,14.05
2022-10-08T15:25:13.428Z,14.09
2022-10-08T15:27:41.664Z,14.03
2022-10-08T15:30:13.211Z,13.85
2022-10-08T15:32:41.365Z,13.81
2022-10-08T15:35:11.193Z,13.85
2022-10-08T15:37:39.587Z,13.75
2022-10-08T15:40:08.524Z,13.59
2022-10-08T15:42:36.763Z,13.33
2022-10-08T15:45:05.540Z,13.06
2022-10-08T15:47:35.004Z,13.15
2022-10-08T15:50:03.332Z,12.90
2022-10-08T15:52:33.203Z,12.78
2022-10-08T15:55:02.558Z,12.84
2022-10-08T15:57:30.691Z,12.76
2022-10-08T15:59:59.341Z,12.56
2022-10-08T16:02:27.629Z,12.79
2022-10-08T16:04:57.388Z,12.79
2022-10-08T16:07:25.500Z,12.79
2022-10-08T16:09:53.617Z,12.85
2022-10-08T16:12:21.739Z,12.80
2022-10-08T16:14:49.877Z,12.52
2022-10-08T16:17:18.010Z,12.55
2022-10-08T16:19:46.194Z,12.48
2022-10-08T16:22:16.103Z,12.31
2022-10-08T16:24:44.224Z,12.19
2022-10-08T16:27:12.355Z,12.08
2022-10-08T16:29:40.496Z,12.06
2022-10-08T16:32:10.910Z,12.02
2022-10-08T16:34:41.834Z,11.88
2022-10-08T16:37:12.966Z,11.88
2022-10-08T16:39:42.695Z,11.80
2022-10-08T16:42:11.166Z,11.77
2022-10-08T16:44:39.612Z,11.72
2022-10-08T16:47:07.771Z,11.82
2022-10-08T16:49:35.894Z,11.86
2022-10-08T16:52:08.078Z,11.86
2022-10-08T16:54:36.488Z,11.78
2022-10-08T16:57:06.001Z,11.71
2022-10-08T16:59:34.150Z,11.69
2022-10-08T17:02:03.571Z,11.78
2022-10-08T17:04:38.863Z,11.69
2022-10-08T17:07:07.912Z,11.69
2022-10-08T17:09:36.595Z,11.67
2022-10-08T17:12:06.249Z,11.64
2022-10-08T17:14:34.457Z,11.79
2022-10-08T17:17:02.638Z,11.61
2022-10-08T17:19:30.876Z,11.55
2022-10-08T17:21:59.163Z,11.54
2022-10-08T17:24:27.358Z,11.54
2022-10-08T17:26:55.477Z,11.63
2022-10-08T17:29:24.924Z,11.55
2022-10-08T17:31:53.153Z,11.48
2022-10-08T17:34:21.265Z,11.57
2022-10-08T17:36:49.405Z,11.56
2022-10-08T17:39:17.517Z,11.55
2022-10-08T17:41:45.628Z,11.60
2022-10-08T17:44:14.529Z,11.58
2022-10-08T17:46:46.862Z,11.35
2022-10-08T17:49:16.359Z,11.28
2022-10-08T17:51:44.898Z,11.29
2022-10-08T17:54:15.149Z,11.20
2022-10-08T17:56:43.839Z,11.31
2022-10-08T17:59:14.728Z,11.28
2022-10-08T18:01:45.874Z,11.18
2022-10-08T18:04:16.786Z,11.10
2022-10-08T18:06:47.261Z,11.10
2022-10-08T18:09:18.237Z,11.17
2022-10-08T18:11:48.623Z,10.99
2022-10-08T18:14:17.414Z,10.86
2022-10-08T18:16:48.510Z,10.82
2022-10-08T18:19:17.293Z,10.80
2022-10-08T18:21:45.671Z,10.91
2022-10-08T18:24:14.026Z,10.67
2022-10-08T18:26:42.175Z,10.55
2022-10-08T18:29:12.469Z,10.55
2022-10-08T18:31:42.197Z,10.41
2022-10-08T18:34:14.853Z,10.39
2022-10-08T18:36:43.741Z,10.20
2022-10-08T18:39:14.787Z,10.16
2022-10-08T18:41:45.127Z,10.17
2022-10-08T18:44:15.523Z,10.19
2022-10-08T18:46:44.766Z,10.05
2022-10-08T18:49:15.713Z,9.99
2022-10-08T18:51:44.033Z,9.99
2022-10-08T18:54:12.644Z,9.84
2022-10-08T18:56:41.432Z,9.78
2022-10-08T18:59:12.880Z,9.59
2022-10-08T19:01:43.331Z,9.72
2022-10-08T19:04:16.388Z,9.66
2022-10-08T19:06:46.867Z,9.47
2022-10-08T19:09:15.315Z,9.43
2022-10-08T19:11:45.497Z,9.30
2022-10-08T19:14:15.897Z,9.38
2022-10-08T19:16:44.399Z,9.26
2022-10-08T19:19:16.549Z,9.31
2022-10-08T19:21:45.190Z,9.37
2022-10-08T19:24:15.141Z,9.17
2022-10-08T19:26:43.489Z,9.08
2022-10-08T19:29:15.664Z,8.92
2022-10-08T19:31:47.264Z,8.82
2022-10-08T19:34:19.283Z,8.67
2022-10-08T19:36:47.941Z,8.63
2022-10-08T19:39:18.362Z,8.74
2022-10-08T19:41:46.572Z,8.80
2022-10-08T19:44:16.486Z,8.66
2022-10-08T19:46:44.867Z,8.52
2022-10-08T19:49:13.428Z,8.62
2022-10-08T19:51:43.269Z,8.62
2022-10-08T19:54:12.004Z,8.64
2022-10-08T19:56:40.151Z,8.68
2022-10-08T19:59:08.321Z,8.69
2022-10-08T20:01:37.592Z,8.70
2022-10-08T20:04:07.739Z,8.63
2022-10-08T20:06:39.181Z,8.58
2022-10-08T20:09:11.943Z,8.68
2022-10-08T20:11:41.338Z,8.48
2022-10-08T20:14:09.546Z,8.49
2022-10-08T20:16:39.557Z,8.42
2022-10-08T20:19:09.839Z,8.30
2022-10-08T20:21:38.953Z,8.23
2022-10-08T20:24:08.467Z,8.08
2022-10-08T20:26:37.740Z,7.95
2022-10-08T20:29:07.845Z,7.98
2022-10-08T20:31:37.434Z,8.00
2022-10-08T20:34:07.892Z,7.73
2022-10-08T20:36:36.187Z,7.65
2022-10-08T20:39:04.876Z,7.58
2022-10-08T20:41:34.454Z,7.56
2022-10-08T20:44:04.027Z,7.59
2022-10-08T20:46:33.891Z,7.46
2022-10-08T20:49:02.362Z,7.51
2022-10-08T20:51:33.361Z,7.77
2022-10-08T20:54:03.572Z,7.91
2022-10-08T20:56:37.151Z,8.00
2022-10-08T20:59:09.656Z,7.79
2022-10-08T21:01:39.305Z,7.92
2022-10-08T21:04:08.278Z,7.80
2022-10-08T21:06:39.715Z,7.75
2022-10-08T21:09:08.939Z,7.61
2022-10-08T21:11:37.924Z,7.43
2022-10-08T21:14:07.459Z,7.36
2022-10-08T21:16:39.285Z,7.26
2022-10-08T21:19:10.990Z,7.33
2022-10-08T21:21:39.305Z,7.37
2022-10-08T21:24:07.832Z,7.32
2022-10-08T21:26:38.408Z,7.43
2022-10-08T21:29:08.653Z,7.41
2022-10-08T21:31:40.183Z,7.22
2022-10-08T21:34:09.044Z,7.38
2022-10-08T21:36:39.305Z,7.11
2022-10-08T21:39:09.841Z,6.88
2022-10-08T21:41:38.717Z,6.98
2022-10-08T21:44:08.869Z,6.71
2022-10-08T21:46:40.741Z,6.83
2022-10-08T21:49:11.904Z,6.71
2022-10-08T21:51:40.195Z,6.59
2022-10-08T21:54:08.441Z,6.88
2022-10-08T21:56:38.325Z,6.73
2022-10-08T21:59:09.050Z,6.77
2022-10-08T22:01:40.521Z,6.93
2022-10-08T22:04:10.231Z,6.93
2022-10-08T22:06:40.541Z,7.04
2022-10-08T22:09:10.705Z,7.11
2022-10-08T22:11:39.142Z,7.19
2022-10-08T22:14:07.485Z,7.07
2022-10-08T22:16:35.953Z,7.10
2022-10-08T22:19:06.304Z,7.19
2022-10-08T22:21:35.142Z,7.21
2022-10-08T22:24:03.865Z,7.09
2022-10-08T22:26:34.670Z,7.21
2022-10-08T22:29:03.337Z,7.12
2022-10-08T22:31:32.190Z,7.22
2022-10-08T22:34:00.497Z,7.08
2022-10-08T22:36:31.608Z,7.15
2022-10-08T22:39:00.065Z,7.02
2022-10-08T22:41:30.096Z,6.83
2022-10-08T22:43:59.207Z,6.94
2022-10-08T22:46:29.661Z,6.80
2022-10-08T22:48:58.309Z,6.98
2022-10-08T22:51:27.238Z,7.02
2022-10-08T22:53:57.312Z,7.11
2022-10-08T22:56:27.910Z,7.35
2022-10-08T22:58:56.578Z,7.25
2022-10-08T23:01:26.453Z,7.21
2022-10-08T23:03:55.098Z,6.99
2022-10-08T23:06:24.834Z,6.94
2022-10-08T23:08:57.682Z,6.70
2022-10-08T23:11:27.268Z,6.79
2022-10-08T23:13:56.803Z,6.73
2022-10-08T23:16:26.205Z,6.33
2022-10-08T23:18:56.755Z,6.16
2022-10-08T23:21:25.102Z,6.22
2022-10-08T23:23:54.455Z,6.32
2022-10-08T23:26:25.076Z,6.20
2022-10-08T23:28:55.468Z,6.07
2022-10-08T23:31:25.986Z,6.05
2022-10-08T23:33:55.481Z,6.29
2022-10-08T23:36:25.189Z,6.22
2022-10-08T23:38:53.675Z,6.06
2022-10-08T23:41:21.793Z,6.07
2022-10-08T23:43:52.725Z,6.34
2022-10-08T23:46:23.040Z,6.40
2022-10-08T23:48:52.287Z,6.40
2022-10-08T23:51:21.609Z,6.51
2022-10-08T23:53:51.276Z,6.53
2022-10-08T23:56:19.946Z,6.54
2022-10-08T23:58:48.446Z,6.62
